»·PEaware :: DAL1114 KSEA-KPDX

DAL1114 :: KSEA-KPDX

FLIGHT INFORMATION

Flight Status: Arrived
Operator:
Delta Air Lines
More flights by this operator :: More flights under this callsign
Pilot: Jeff S. (15817)
Aircraft: AIRBUS A320
(A320)
More flights by this aircraft type
Origin: KSEA Seattle-Tacoma Intl
United States
Destination: KPDX Portland Intl
United States
More flights between these airports :: More routes between these airports
Route: +SEA7 BUWZO KRATR2
File this flight plan on PilotEdge
Remarks: PBN / A1B1C1D1O1S1 NAV / RNVD1E2A1 REG / N320SB RMK / SIMBRIEF
Altitude:
(Current/Filed)
17,000ft
Speed:
(Current/Filed)
415kts
Departed: 26-Sep-18 09:31 PM
Arrived: 26-Sep-18 10:03 PM
Distance/Time
Traveled:
112nm/0:32
Distance/Time
To Go:
Arrived

Flight Plot

Page will automatically refresh every two minutes.

Flight plan parsing failed; only flown route is shown


Map Options




Map Legend


Flown Route
Filed Route
Departure Airport
Arrival Airport
Navaid (VOR, NDB)
Fix

Horizontal Profiles

Position Reports

Time Latitude Longitude Heading Altitude Ground
Speed
26-Sep-18 21:11 47.448601 -122.303971 39 436ft 0kts
26-Sep-18 21:12 47.448601 -122.303971 39 436ft 0kts
26-Sep-18 21:13 47.448601 -122.303971 39 436ft 0kts
26-Sep-18 21:14 47.448601 -122.303971 39 436ft 0kts
26-Sep-18 21:15 47.448601 -122.303971 39 436ft 0kts
26-Sep-18 21:16 47.448601 -122.303971 39 436ft 0kts
26-Sep-18 21:17 47.448601 -122.303971 39 436ft 0kts
26-Sep-18 21:18 47.448601 -122.303971 39 436ft 0kts
26-Sep-18 21:19 47.448601 -122.303971 39 436ft 0kts
26-Sep-18 21:20 47.448601 -122.303971 39 436ft 0kts
26-Sep-18 21:21 47.448601 -122.303971 39 436ft 0kts
26-Sep-18 21:22 47.448601 -122.303971 39 436ft 0kts
26-Sep-18 21:23 47.448601 -122.303971 39 436ft 0kts
26-Sep-18 21:24 47.448600 -122.303971 39 436ft 0kts
26-Sep-18 21:25 47.448523 -122.304065 39 436ft 2kts
26-Sep-18 21:26 47.448108 -122.304524 14 436ft 2kts
26-Sep-18 21:27 47.447697 -122.304284 298 436ft 2kts
26-Sep-18 21:28 47.447650 -122.303983 271 436ft 0kts
26-Sep-18 21:29 47.447651 -122.304000 271 436ft 1kts
26-Sep-18 21:30 47.446471 -122.306289 178 436ft 24kts
26-Sep-18 21:31 47.438450 -122.306393 187 436ft 14kts
26-Sep-18 21:32 47.438062 -122.310252 271 436ft 10kts
26-Sep-18 21:33 47.440344 -122.311232 0 436ft 50kts
26-Sep-18 21:34 47.476091 -122.310901 0 1589ft 205kts
26-Sep-18 21:35 47.530561 -122.311112 359 3829ft 252kts
26-Sep-18 21:36 47.597936 -122.315945 338 6419ft 276kts
26-Sep-18 21:37 47.619727 -122.410585 238 8991ft 296kts
26-Sep-18 21:38 47.545220 -122.439518 171 11036ft 334kts
26-Sep-18 21:39 47.449433 -122.417534 171 11964ft 391kts
26-Sep-18 21:40 47.340541 -122.393558 171 13081ft 421kts
26-Sep-18 21:41 47.227435 -122.368908 171 14684ft 430kts
26-Sep-18 21:42 47.110749 -122.343688 171 16185ft 438kts
26-Sep-18 21:43 46.990335 -122.317778 171 16813ft 439kts
26-Sep-18 21:44 46.873322 -122.309672 180 16816ft 440kts
26-Sep-18 21:45 46.754944 -122.309650 180 16816ft 440kts
26-Sep-18 21:46 46.641938 -122.309610 180 16816ft 440kts
26-Sep-18 21:47 46.521733 -122.309596 180 16395ft 438kts
26-Sep-18 21:48 46.406252 -122.309574 180 14282ft 416kts
26-Sep-18 21:49 46.309515 -122.308578 180 16415ft 275kts
26-Sep-18 21:50 46.230899 -122.323756 201 13945ft 312kts
26-Sep-18 21:51 46.150094 -122.369272 201 12178ft 313kts
26-Sep-18 21:52 46.071780 -122.412636 200 9967ft 291kts
26-Sep-18 21:53 46.000462 -122.450950 200 8787ft 272kts
26-Sep-18 21:54 45.930912 -122.485777 183 7557ft 267kts
26-Sep-18 21:55 45.863104 -122.466889 167 6439ft 262kts
26-Sep-18 21:56 45.793872 -122.444815 167 5565ft 259kts
26-Sep-18 21:57 45.723480 -122.421263 166 4860ft 279kts
26-Sep-18 21:58 45.650822 -122.396071 166 3843ft 265kts
26-Sep-18 21:59 45.588956 -122.374687 166 3554ft 224kts
26-Sep-18 22:00 45.534376 -122.356347 177 2859ft 196kts
26-Sep-18 22:01 45.507731 -122.412140 278 2889ft 192kts
26-Sep-18 22:02 45.539154 -122.467169 320 1924ft 179kts
26-Sep-18 22:03 45.564404 -122.519297 300 888ft 152kts
26-Sep-18 22:04 45.583313 -122.566448 300 127ft 147kts
26-Sep-18 22:05 45.592131 -122.590739 269 38ft 16kts
26-Sep-18 22:06 45.593113 -122.597158 271 38ft 12kts
26-Sep-18 22:07 45.591551 -122.597205 86 38ft 4kts
26-Sep-18 22:08 45.591557 -122.597059 87 38ft 0kts

Navigation Log

Ident Type
Flight plan parsing failed, navigation log unavailable